Fort William, United Kingdom
Current Conditions -  °F | °C
As of 3:50 PM on Sunday 25 Jan 2015 (Local Time) from EGPE Reporting Station
Scattered Clouds Scattered Clouds  
Wind Chill: 50°   Ceiling: Unl
Heat Index: 50°   Visibility: 6mi
Dew Point: 45°   Wind: 23mph
Humidity: 82%   Direction: 240°WSW
Pressure: 29.8"   Gusts: NA
Location:  56.82°N, 5.11°W
Report Text: EGPE 251550Z 24020KT 9999 FEW010 FEW024CB SCT042 10/07 Q1009
Loading
Personal Weather Stations






























Interactive Weather Map New forecast layout! Learn more

10-Day Weather Forecast

Advertisements
Track Severe Weather on mobile